createdAt,value
2024-01-24T00:01:38.162Z,0.50
2024-01-24T00:03:47.164Z,0.40
2024-01-24T00:05:55.824Z,0.50
2024-01-24T00:08:03.615Z,0.50
2024-01-24T00:10:12.124Z,0.30
2024-01-24T00:12:20.773Z,0.47
2024-01-24T00:14:29.317Z,0.40
2024-01-24T00:16:37.949Z,0.50
2024-01-24T00:18:48.015Z,0.57
2024-01-24T00:20:56.550Z,0.50
2024-01-24T00:23:05.338Z,0.40
2024-01-24T00:25:13.923Z,0.43
2024-01-24T00:27:21.385Z,0.60
2024-01-24T00:29:29.984Z,0.50
2024-01-24T00:31:39.129Z,0.50
2024-01-24T00:33:48.298Z,0.50
2024-01-24T00:35:56.917Z,0.40
2024-01-24T00:38:05.549Z,0.70
2024-01-24T00:40:14.514Z,0.40
2024-01-24T00:42:23.280Z,0.40
2024-01-24T00:44:31.858Z,0.60
2024-01-24T00:46:40.420Z,0.70
2024-01-24T00:48:50.654Z,0.70
2024-01-24T00:50:59.169Z,0.60
2024-01-24T00:53:07.975Z,0.50
2024-01-24T00:55:16.608Z,0.60
2024-01-24T00:57:24.099Z,0.50
2024-01-24T00:59:32.720Z,0.97
2024-01-24T01:01:41.320Z,0.90
2024-01-24T01:03:51.708Z,1.20
2024-01-24T01:06:00.395Z,1.00
2024-01-24T01:08:09.591Z,1.00
2024-01-24T01:10:18.374Z,0.73
2024-01-24T01:12:27.005Z,0.87
2024-01-24T01:14:35.561Z,0.50
2024-01-24T01:16:44.363Z,0.73
2024-01-24T01:18:54.547Z,0.50
2024-01-24T01:21:03.173Z,0.47
2024-01-24T01:23:11.756Z,0.50
2024-01-24T01:25:20.313Z,0.60
2024-01-24T01:27:31.613Z,0.50
2024-01-24T01:29:40.610Z,0.60
2024-01-24T01:31:49.556Z,0.60
2024-01-24T01:34:02.292Z,0.50
2024-01-24T01:36:18.132Z,0.60
2024-01-24T01:38:34.582Z,0.50
2024-01-24T01:40:43.459Z,0.60
2024-01-24T01:42:52.238Z,0.53
2024-01-24T01:45:00.976Z,0.73
2024-01-24T01:47:12.192Z,0.60
2024-01-24T01:49:23.640Z,0.43
2024-01-24T01:51:32.937Z,0.43
2024-01-24T01:53:41.884Z,0.30
2024-01-24T01:55:50.784Z,0.60
2024-01-24T01:58:00.891Z,0.50
2024-01-24T02:00:11.663Z,0.80
2024-01-24T02:02:20.493Z,0.70
2024-01-24T02:04:31.281Z,0.63
2024-01-24T02:06:42.090Z,0.60
2024-01-24T02:08:54.159Z,0.53
2024-01-24T02:11:02.818Z,0.70
2024-01-24T02:13:12.718Z,0.50
2024-01-24T02:15:21.998Z,0.90
2024-01-24T02:17:30.697Z,0.47
2024-01-24T02:19:40.840Z,0.70
2024-01-24T02:21:49.468Z,0.53
2024-01-24T02:23:58.533Z,0.60
2024-01-24T02:26:09.068Z,0.53
2024-01-24T02:28:17.706Z,0.70
2024-01-24T02:30:26.457Z,0.50
2024-01-24T02:32:35.238Z,0.70
2024-01-24T02:34:44.973Z,0.67
2024-01-24T02:36:53.702Z,0.60
2024-01-24T02:39:02.278Z,0.50
2024-01-24T02:41:12.537Z,0.60
2024-01-24T02:43:21.185Z,0.70
2024-01-24T02:45:30.011Z,0.60
2024-01-24T02:47:38.997Z,0.90
2024-01-24T02:49:47.677Z,0.63
2024-01-24T02:51:57.196Z,0.50
2024-01-24T02:54:06.091Z,0.93
2024-01-24T02:56:16.167Z,0.60
2024-01-24T02:58:24.714Z,0.80
2024-01-24T03:00:33.402Z,0.73
2024-01-24T03:02:42.487Z,0.70
2024-01-24T03:04:51.201Z,0.80
2024-01-24T03:07:00.198Z,0.70
2024-01-24T03:09:09.137Z,0.90
2024-01-24T03:11:19.312Z,0.80
2024-01-24T03:13:27.956Z,0.77
2024-01-24T03:15:36.576Z,1.10
2024-01-24T03:17:45.275Z,0.90
2024-01-24T03:19:56.242Z,1.30
2024-01-24T03:22:05.108Z,1.30
2024-01-24T03:24:13.714Z,1.20
2024-01-24T03:26:23.784Z,1.03
2024-01-24T03:28:31.363Z,1.00
2024-01-24T03:30:39.897Z,0.70
2024-01-24T03:32:48.496Z,1.20
2024-01-24T03:34:56.389Z,1.10
2024-01-24T03:37:05.148Z,0.80
2024-01-24T03:39:13.699Z,0.93
2024-01-24T03:41:23.905Z,0.90
2024-01-24T03:43:34.210Z,1.23
2024-01-24T03:45:41.782Z,1.30
2024-01-24T03:47:51.814Z,1.13
2024-01-24T03:50:00.408Z,0.97
2024-01-24T03:52:07.902Z,0.93
2024-01-24T03:54:16.670Z,1.53
2024-01-24T03:56:26.909Z,1.13
2024-01-24T03:58:36.325Z,1.10
2024-01-24T04:00:44.942Z,1.47
2024-01-24T04:02:53.663Z,1.57
2024-01-24T04:05:02.331Z,1.67
2024-01-24T04:07:10.908Z,1.40
2024-01-24T04:09:20.156Z,2.30
2024-01-24T04:11:30.148Z,1.20
2024-01-24T04:13:38.680Z,1.27
2024-01-24T04:15:47.314Z,1.57
2024-01-24T04:17:55.856Z,1.47
2024-01-24T04:20:03.497Z,1.67
2024-01-24T04:22:12.002Z,1.60
2024-01-24T04:24:20.519Z,1.80
2024-01-24T04:26:30.462Z,1.70
2024-01-24T04:28:39.479Z,1.33
2024-01-24T04:30:48.323Z,1.77
2024-01-24T04:32:57.113Z,1.77
2024-01-24T04:35:05.832Z,1.67
2024-01-24T04:37:14.461Z,1.53
2024-01-24T04:39:23.200Z,2.27
2024-01-24T04:41:33.262Z,2.27
2024-01-24T04:43:41.908Z,2.13
2024-01-24T04:45:50.682Z,1.90
2024-01-24T04:47:59.392Z,2.40
2024-01-24T04:50:08.712Z,2.13
2024-01-24T04:52:17.376Z,2.00
2024-01-24T04:54:26.222Z,2.40
2024-01-24T04:56:36.346Z,1.90
2024-01-24T04:58:45.119Z,2.20
2024-01-24T05:00:53.725Z,2.00
2024-01-24T05:03:02.726Z,2.60
2024-01-24T05:05:12.194Z,2.13
2024-01-24T05:07:19.822Z,2.23
2024-01-24T05:09:28.700Z,2.73
2024-01-24T05:11:42.619Z,2.20
2024-01-24T05:13:52.181Z,3.70
2024-01-24T05:16:01.028Z,2.50
2024-01-24T05:18:09.721Z,3.13
2024-01-24T05:20:18.647Z,3.13
2024-01-24T05:22:27.258Z,2.90
2024-01-24T05:24:35.829Z,2.33
2024-01-24T05:26:47.785Z,3.13
2024-01-24T05:28:56.875Z,2.30
2024-01-24T05:31:05.653Z,2.63
2024-01-24T05:33:14.537Z,3.10
2024-01-24T05:35:23.347Z,2.90
2024-01-24T05:37:32.378Z,3.20
2024-01-24T05:39:43.467Z,3.27
2024-01-24T05:41:53.900Z,2.67
2024-01-24T05:44:02.639Z,2.23
2024-01-24T05:46:11.821Z,2.40
2024-01-24T05:48:20.651Z,2.90
2024-01-24T05:50:29.399Z,2.03
2024-01-24T05:52:40.553Z,2.73
2024-01-24T05:54:49.488Z,2.43
2024-01-24T05:56:59.862Z,2.40
2024-01-24T05:59:09.218Z,2.23
2024-01-24T06:01:19.126Z,2.03
2024-01-24T06:03:27.881Z,2.20
2024-01-24T06:05:37.353Z,1.60
2024-01-24T06:07:47.727Z,2.10
2024-01-24T06:09:56.524Z,2.07
2024-01-24T06:12:07.082Z,2.07
2024-01-24T06:14:15.675Z,2.40
2024-01-24T06:16:24.190Z,1.73
2024-01-24T06:18:31.837Z,2.37
2024-01-24T06:20:40.447Z,1.87
2024-01-24T06:22:49.288Z,1.93
2024-01-24T06:24:58.843Z,1.80
2024-01-24T06:27:10.105Z,1.60
2024-01-24T06:30:14.658Z,2.00
2024-01-24T06:31:49.155Z,2.90
2024-01-24T06:33:58.150Z,1.80
2024-01-24T06:36:07.412Z,1.90
2024-01-24T06:38:16.131Z,2.33
2024-01-24T06:40:23.803Z,1.90
2024-01-24T06:42:34.240Z,1.50
2024-01-24T06:44:43.990Z,1.40
2024-01-24T06:46:54.984Z,1.20
2024-01-24T06:49:03.784Z,1.47
2024-01-24T06:51:14.625Z,1.07
2024-01-24T06:53:23.314Z,1.17
2024-01-24T06:55:31.958Z,1.40
2024-01-24T06:57:42.032Z,0.60
2024-01-24T06:59:50.717Z,0.97
2024-01-24T07:01:59.225Z,0.90
2024-01-24T07:04:07.856Z,1.00
2024-01-24T07:06:16.722Z,0.83
2024-01-24T07:08:25.265Z,1.17
2024-01-24T07:10:33.967Z,0.97
2024-01-24T07:12:47.859Z,0.80
2024-01-24T07:14:56.817Z,0.87
2024-01-24T07:17:06.500Z,0.70
2024-01-24T07:19:15.150Z,0.70
2024-01-24T07:21:23.843Z,0.87
2024-01-24T07:23:32.460Z,0.93
2024-01-24T07:25:40.031Z,0.50
2024-01-24T07:27:50.224Z,0.80
2024-01-24T07:29:59.134Z,0.40
2024-01-24T07:32:08.032Z,0.50
2024-01-24T07:34:16.844Z,0.70
2024-01-24T07:36:26.258Z,0.60
2024-01-24T07:38:35.286Z,0.40
2024-01-24T07:40:43.915Z,0.40
2024-01-24T07:42:55.406Z,0.30
2024-01-24T07:45:05.295Z,0.20
2024-01-24T07:47:14.068Z,0.60
2024-01-24T07:49:23.017Z,0.27
2024-01-24T07:51:32.078Z,0.50
2024-01-24T07:53:43.475Z,0.33
2024-01-24T07:55:56.534Z,0.53
2024-01-24T07:58:13.895Z,0.40
2024-01-24T08:00:22.711Z,0.40
2024-01-24T08:02:31.386Z,0.40
2024-01-24T08:04:40.189Z,0.50
2024-01-24T08:06:49.316Z,0.43
2024-01-24T08:08:59.355Z,0.20
2024-01-24T08:11:08.183Z,0.40
2024-01-24T08:13:18.242Z,0.33
2024-01-24T08:15:26.564Z,0.40
2024-01-24T08:17:35.342Z,0.30
2024-01-24T08:19:46.402Z,0.20
2024-01-24T08:21:55.492Z,0.40
2024-01-24T08:24:04.438Z,0.50
2024-01-24T08:26:13.486Z,0.40
2024-01-24T08:28:23.780Z,0.40
2024-01-24T08:30:34.575Z,0.30
2024-01-24T08:32:43.572Z,0.30
2024-01-24T08:34:52.765Z,0.50
2024-01-24T08:37:01.550Z,0.87
2024-01-24T08:39:13.044Z,0.57
2024-01-24T08:41:22.446Z,0.40
2024-01-24T08:43:33.059Z,0.40
2024-01-24T08:45:40.877Z,0.43
2024-01-24T08:47:49.679Z,0.20
2024-01-24T08:49:58.803Z,0.50
2024-01-24T08:52:08.460Z,0.30
2024-01-24T08:54:17.503Z,0.67
2024-01-24T08:56:29.489Z,0.50
2024-01-24T08:58:42.114Z,0.30
2024-01-24T09:00:51.244Z,0.40
2024-01-24T09:03:00.291Z,0.50
2024-01-24T09:05:09.954Z,0.30
2024-01-24T09:07:21.206Z,0.33
2024-01-24T09:09:31.958Z,0.40
2024-01-24T09:11:49.099Z,0.10
2024-01-24T09:14:05.820Z,0.40
2024-01-24T09:16:14.594Z,0.30
2024-01-24T09:18:23.665Z,0.50
2024-01-24T09:20:32.518Z,0.20
2024-01-24T09:22:41.264Z,0.37
2024-01-24T09:24:50.324Z,0.30
2024-01-24T09:27:00.138Z,0.30
2024-01-24T09:29:13.606Z,0.30
2024-01-24T09:31:22.474Z,0.20
2024-01-24T09:33:31.221Z,0.33
2024-01-24T09:35:40.193Z,0.33
2024-01-24T09:37:48.899Z,0.50
2024-01-24T09:39:57.747Z,0.40
2024-01-24T09:42:06.982Z,0.20
2024-01-24T09:44:19.036Z,0.20
2024-01-24T09:46:28.001Z,0.40
2024-01-24T09:48:36.605Z,0.20
2024-01-24T09:50:46.888Z,0.33
2024-01-24T09:52:56.148Z,0.40
2024-01-24T09:55:06.623Z,0.30
2024-01-24T09:57:15.476Z,0.43
2024-01-24T09:59:25.951Z,0.30
2024-01-24T10:01:36.814Z,0.30
2024-01-24T10:03:46.123Z,0.30
2024-01-24T10:05:55.813Z,0.30
2024-01-24T10:08:04.588Z,0.30
2024-01-24T10:10:14.519Z,0.30
2024-01-24T10:12:23.248Z,0.30
2024-01-24T10:14:33.503Z,0.30
2024-01-24T10:16:44.517Z,0.40
2024-01-24T10:18:53.860Z,0.30
2024-01-24T10:21:04.601Z,0.37
2024-01-24T10:23:13.195Z,0.30
2024-01-24T10:25:21.848Z,0.40
2024-01-24T10:27:31.712Z,0.47
2024-01-24T10:29:45.821Z,0.33
2024-01-24T10:31:57.754Z,0.40
2024-01-24T10:34:06.472Z,0.40
2024-01-24T10:36:25.934Z,0.37
2024-01-24T10:38:39.423Z,0.30
2024-01-24T10:40:48.521Z,0.57
2024-01-24T10:43:01.280Z,0.50
2024-01-24T10:45:11.896Z,0.60
2024-01-24T10:47:20.772Z,0.30
2024-01-24T10:49:30.208Z,0.60
2024-01-24T10:51:39.554Z,0.63
2024-01-24T10:53:48.353Z,0.50
2024-01-24T10:55:57.558Z,0.60
2024-01-24T10:58:07.694Z,0.53
2024-01-24T11:00:20.566Z,0.40
2024-01-24T11:02:29.372Z,0.40
2024-01-24T11:04:38.819Z,0.77
2024-01-24T11:06:49.268Z,0.53
2024-01-24T11:09:03.592Z,0.50
2024-01-24T11:11:15.207Z,0.60
2024-01-24T11:13:26.156Z,0.53
2024-01-24T11:15:36.205Z,0.63
2024-01-24T11:17:48.012Z,0.50
2024-01-24T11:19:59.032Z,0.63
2024-01-24T11:22:16.989Z,0.70
2024-01-24T11:24:53.641Z,0.80
2024-01-24T11:27:02.521Z,0.63
2024-01-24T11:29:15.089Z,0.43
2024-01-24T11:31:39.390Z,0.60
2024-01-24T11:34:02.853Z,0.70
2024-01-24T11:36:15.204Z,0.67
2024-01-24T11:38:36.814Z,0.97
2024-01-24T11:40:45.577Z,0.77
2024-01-24T11:42:57.923Z,1.13
2024-01-24T11:45:15.391Z,0.90
2024-01-24T11:47:28.572Z,1.00
2024-01-24T11:49:37.248Z,1.20
2024-01-24T11:51:45.858Z,1.00
2024-01-24T11:54:04.770Z,1.10
2024-01-24T11:56:14.473Z,1.00
2024-01-24T11:58:27.167Z,1.33
2024-01-24T12:00:35.740Z,0.90
2024-01-24T12:02:46.841Z,0.80
2024-01-24T12:04:56.262Z,0.93
2024-01-24T12:07:05.134Z,0.70
2024-01-24T12:09:13.679Z,1.30
2024-01-24T12:11:21.141Z,0.97
2024-01-24T12:13:30.809Z,0.90
2024-01-24T12:15:39.500Z,0.90
2024-01-24T12:17:49.688Z,1.20
2024-01-24T12:20:00.783Z,1.17
2024-01-24T12:22:11.260Z,0.70
2024-01-24T12:24:19.947Z,1.00
2024-01-24T12:26:28.668Z,1.00
2024-01-24T12:28:36.794Z,0.80
2024-01-24T12:30:46.737Z,0.90
2024-01-24T12:32:59.005Z,0.90
2024-01-24T12:35:07.813Z,0.93
2024-01-24T12:37:16.653Z,0.93
2024-01-24T12:39:28.077Z,1.10
2024-01-24T12:41:36.707Z,0.90
2024-01-24T12:43:45.482Z,0.90
2024-01-24T12:45:54.300Z,1.30
2024-01-24T12:48:04.392Z,0.97
2024-01-24T12:50:14.166Z,1.10
2024-01-24T12:52:23.083Z,1.20
2024-01-24T12:54:31.881Z,1.10
2024-01-24T12:56:40.462Z,1.30
2024-01-24T12:58:49.039Z,1.37
2024-01-24T13:00:58.017Z,1.70
2024-01-24T13:03:08.193Z,1.50
2024-01-24T13:05:20.014Z,1.40
2024-01-24T13:07:32.366Z,1.57
2024-01-24T13:09:46.185Z,1.73
2024-01-24T13:12:02.146Z,1.90
2024-01-24T13:14:10.897Z,1.70
2024-01-24T13:16:19.459Z,1.33
2024-01-24T13:18:29.531Z,1.60
2024-01-24T13:20:38.129Z,1.40
2024-01-24T13:22:46.733Z,1.00
2024-01-24T13:24:55.732Z,1.60
2024-01-24T13:27:04.635Z,1.50
2024-01-24T13:29:13.104Z,1.70
2024-01-24T13:31:21.795Z,1.50
2024-01-24T13:33:31.763Z,1.60
2024-01-24T13:35:41.522Z,1.53
2024-01-24T13:37:50.074Z,1.20
2024-01-24T13:39:59.058Z,1.60
2024-01-24T13:42:08.106Z,1.83
2024-01-24T13:44:16.783Z,1.77
2024-01-24T13:46:25.872Z,1.43
2024-01-24T13:48:36.092Z,1.40
2024-01-24T13:50:44.676Z,1.57
2024-01-24T13:52:53.294Z,2.07
2024-01-24T13:55:02.201Z,1.70
2024-01-24T13:57:10.893Z,2.03
2024-01-24T13:59:19.495Z,1.93
2024-01-24T14:01:28.308Z,2.50
2024-01-24T14:03:41.082Z,2.57
2024-01-24T14:05:50.245Z,2.90
2024-01-24T14:07:59.895Z,2.50
2024-01-24T14:10:09.348Z,2.50
2024-01-24T14:12:18.151Z,2.87
2024-01-24T14:14:29.135Z,3.23
2024-01-24T14:16:40.738Z,2.93
2024-01-24T14:18:50.686Z,3.17
2024-01-24T14:21:00.141Z,3.20
2024-01-24T14:23:08.416Z,3.00
2024-01-24T14:25:17.018Z,3.10
2024-01-24T14:27:27.415Z,2.97
2024-01-24T14:29:37.217Z,3.47
2024-01-24T14:31:45.748Z,3.13
2024-01-24T14:33:55.866Z,4.00
2024-01-24T14:36:06.298Z,3.00
2024-01-24T14:38:14.873Z,3.30
2024-01-24T14:40:23.681Z,4.03
2024-01-24T14:42:32.512Z,4.47
2024-01-24T14:44:41.290Z,6.17
2024-01-24T14:46:49.895Z,6.67
2024-01-24T14:48:59.817Z,8.07
2024-01-24T14:51:08.681Z,6.03
2024-01-24T14:53:17.753Z,4.20
2024-01-24T14:55:26.339Z,4.50
2024-01-24T14:57:35.036Z,3.97
2024-01-24T14:59:43.810Z,5.53
2024-01-24T15:01:54.201Z,7.87
2024-01-24T15:04:03.331Z,8.63
2024-01-24T15:06:12.083Z,6.40
2024-01-24T15:08:22.752Z,6.40
2024-01-24T15:10:32.532Z,5.80
2024-01-24T15:12:41.207Z,5.47
2024-01-24T15:14:49.786Z,5.00
2024-01-24T15:16:58.651Z,5.37
2024-01-24T15:19:10.181Z,3.60
2024-01-24T15:21:18.838Z,4.80
2024-01-24T15:23:27.646Z,5.60
2024-01-24T15:25:36.277Z,3.60
2024-01-24T15:27:44.436Z,3.50
2024-01-24T15:29:53.313Z,2.63
2024-01-24T15:32:02.427Z,3.63
2024-01-24T15:34:15.770Z,4.00
2024-01-24T15:36:25.214Z,4.03
2024-01-24T15:38:33.888Z,3.40
2024-01-24T15:40:42.582Z,3.03
2024-01-24T15:42:51.764Z,3.83
2024-01-24T15:45:01.709Z,3.73
2024-01-24T15:47:11.698Z,4.13
2024-01-24T15:49:21.665Z,3.97
2024-01-24T15:51:30.727Z,3.37
2024-01-24T15:53:39.295Z,4.10
2024-01-24T15:55:47.837Z,4.33
2024-01-24T15:57:55.558Z,4.87
2024-01-24T16:00:05.169Z,6.23
2024-01-24T16:02:14.430Z,5.13
2024-01-24T16:04:25.089Z,4.67
2024-01-24T16:06:33.661Z,4.50
2024-01-24T16:08:42.234Z,3.40
2024-01-24T16:10:50.953Z,3.30
2024-01-24T16:12:59.570Z,4.70
2024-01-24T16:15:08.774Z,4.90
2024-01-24T16:17:17.326Z,5.47
2024-01-24T16:19:27.371Z,6.63
2024-01-24T16:21:37.176Z,5.40
2024-01-24T16:23:45.702Z,5.30
2024-01-24T16:25:54.808Z,5.67
2024-01-24T16:28:03.633Z,8.70
2024-01-24T16:30:12.488Z,6.93
2024-01-24T16:32:21.026Z,5.83
2024-01-24T16:34:30.995Z,4.50
2024-01-24T16:36:39.678Z,4.30
2024-01-24T16:38:48.296Z,4.00
2024-01-24T16:40:57.176Z,4.07
2024-01-24T16:43:05.905Z,4.43
2024-01-24T16:45:15.703Z,4.27
2024-01-24T16:47:25.513Z,4.07
2024-01-24T16:49:35.586Z,3.97
2024-01-24T16:51:44.214Z,4.57
2024-01-24T16:53:54.030Z,3.87
2024-01-24T16:56:02.511Z,4.47
2024-01-24T16:58:11.593Z,9.37
2024-01-24T17:00:20.623Z,4.03
2024-01-24T17:02:37.998Z,3.80
2024-01-24T17:04:53.286Z,4.63
2024-01-24T17:07:02.207Z,3.83
2024-01-24T17:09:11.998Z,4.10
2024-01-24T17:11:21.962Z,4.30
2024-01-24T17:13:31.486Z,4.50
2024-01-24T17:15:41.562Z,4.90
2024-01-24T17:17:50.962Z,4.27
2024-01-24T17:20:02.599Z,4.87
2024-01-24T17:22:12.575Z,4.83
2024-01-24T17:24:22.163Z,4.67
2024-01-24T17:26:32.237Z,3.90
2024-01-24T17:28:42.022Z,3.73
2024-01-24T17:30:54.090Z,4.17
2024-01-24T17:33:04.194Z,3.90
2024-01-24T17:35:15.627Z,3.83
2024-01-24T17:37:26.197Z,3.87
2024-01-24T17:39:36.408Z,3.70
2024-01-24T17:41:44.926Z,4.00
2024-01-24T17:43:53.468Z,3.43
2024-01-24T17:46:02.012Z,3.23
2024-01-24T17:48:10.739Z,3.53
2024-01-24T17:50:20.858Z,3.40
2024-01-24T17:52:29.325Z,3.40
2024-01-24T17:54:37.843Z,3.80
2024-01-24T17:56:45.521Z,3.60
2024-01-24T17:58:54.246Z,3.90
2024-01-24T18:01:03.940Z,3.60
2024-01-24T18:03:12.534Z,3.90
2024-01-24T18:05:22.717Z,3.47
2024-01-24T18:07:32.302Z,3.60
2024-01-24T18:09:40.877Z,3.30
2024-01-24T18:11:49.350Z,3.60
2024-01-24T18:13:56.799Z,3.20
2024-01-24T18:16:05.589Z,2.87
2024-01-24T18:18:14.167Z,2.93
2024-01-24T18:20:24.092Z,2.93
2024-01-24T18:22:32.586Z,3.40
2024-01-24T18:24:41.043Z,2.90
2024-01-24T18:26:49.495Z,2.90
2024-01-24T18:28:58.021Z,2.77
2024-01-24T18:31:06.688Z,3.23
2024-01-24T18:33:16.341Z,1.73
2024-01-24T18:35:26.379Z,2.53
2024-01-24T18:37:35.623Z,2.33
2024-01-24T18:39:44.221Z,2.67
2024-01-24T18:41:52.760Z,2.93
2024-01-24T18:44:02.133Z,2.47
2024-01-24T18:46:09.857Z,2.83
2024-01-24T18:48:19.471Z,3.20
2024-01-24T18:50:29.789Z,3.40
2024-01-24T18:52:38.518Z,3.50
2024-01-24T18:54:47.375Z,3.83
2024-01-24T18:56:55.066Z,3.23
2024-01-24T18:59:03.672Z,3.40
2024-01-24T19:01:12.570Z,3.63
2024-01-24T19:03:21.359Z,3.53
2024-01-24T19:05:37.357Z,4.10
2024-01-24T19:07:47.613Z,4.13
2024-01-24T19:09:56.528Z,5.17
2024-01-24T19:12:07.774Z,4.23
2024-01-24T19:14:17.039Z,4.17
2024-01-24T19:16:26.051Z,3.87
2024-01-24T19:18:34.870Z,3.97
2024-01-24T19:20:44.995Z,3.80
2024-01-24T19:22:53.954Z,3.83
2024-01-24T19:25:03.919Z,3.63
2024-01-24T19:27:12.712Z,2.87
2024-01-24T19:29:21.766Z,3.10
2024-01-24T19:31:30.367Z,2.80
2024-01-24T19:33:40.251Z,3.00
2024-01-24T19:35:50.323Z,2.27
2024-01-24T19:37:59.145Z,2.50
2024-01-24T19:40:08.625Z,2.70
2024-01-24T19:42:17.845Z,2.60
2024-01-24T19:44:25.420Z,2.07
2024-01-24T19:46:34.098Z,1.70
2024-01-24T19:48:42.838Z,1.83
2024-01-24T19:50:53.080Z,1.33
2024-01-24T19:53:02.659Z,1.43
2024-01-24T19:55:11.506Z,1.27
2024-01-24T19:57:20.018Z,1.10
2024-01-24T19:59:28.485Z,1.30
2024-01-24T20:01:37.160Z,1.60
2024-01-24T20:03:45.864Z,1.50
2024-01-24T20:05:55.903Z,1.40
2024-01-24T20:08:04.457Z,2.13
2024-01-24T20:10:12.385Z,1.87
2024-01-24T20:12:21.040Z,1.23
2024-01-24T20:14:29.591Z,2.33
2024-01-24T20:16:38.171Z,1.70
2024-01-24T20:18:46.809Z,1.70
2024-01-24T20:20:56.894Z,1.80
2024-01-24T20:23:04.434Z,0.90
2024-01-24T20:25:12.921Z,0.57
2024-01-24T20:27:21.359Z,0.70
2024-01-24T20:29:28.809Z,0.63
2024-01-24T20:31:37.304Z,0.53
2024-01-24T20:33:45.927Z,0.83
2024-01-24T20:35:54.808Z,0.50
2024-01-24T20:38:04.811Z,0.60
2024-01-24T20:40:13.664Z,0.50
2024-01-24T20:42:28.851Z,1.37
2024-01-24T20:44:38.654Z,0.97
2024-01-24T20:46:47.561Z,1.23
2024-01-24T20:48:57.489Z,1.20
2024-01-24T20:51:06.897Z,1.00
2024-01-24T20:53:21.727Z,0.97
2024-01-24T20:55:30.875Z,0.90
2024-01-24T20:57:39.532Z,0.90
2024-01-24T20:59:48.152Z,1.13
2024-01-24T21:01:58.990Z,1.07
2024-01-24T21:04:07.792Z,1.10
2024-01-24T21:06:16.455Z,1.87
2024-01-24T21:08:26.605Z,1.33
2024-01-24T21:10:37.823Z,0.53
2024-01-24T21:12:50.890Z,0.60
2024-01-24T21:15:00.350Z,0.80
2024-01-24T21:17:08.930Z,0.50
2024-01-24T21:19:18.453Z,0.70
2024-01-24T21:21:29.976Z,0.60
2024-01-24T21:23:40.350Z,0.80
2024-01-24T21:25:48.869Z,0.73
2024-01-24T21:27:57.548Z,1.40
2024-01-24T21:30:06.354Z,3.40
2024-01-24T21:32:14.958Z,4.83
2024-01-24T21:34:23.837Z,5.53
2024-01-24T21:36:33.002Z,4.37
2024-01-24T21:38:43.557Z,4.17
2024-01-24T21:40:52.169Z,1.80
2024-01-24T21:43:00.840Z,1.60
2024-01-24T21:45:08.635Z,1.67
2024-01-24T21:47:17.134Z,1.03
2024-01-24T21:49:25.832Z,1.50
2024-01-24T21:51:34.488Z,1.63
2024-01-24T21:53:47.208Z,0.77
2024-01-24T21:55:56.603Z,0.80
2024-01-24T21:58:05.430Z,0.87
2024-01-24T22:00:14.967Z,1.30
2024-01-24T22:02:23.562Z,2.67
2024-01-24T22:04:32.776Z,1.10
2024-01-24T22:06:41.538Z,1.10
2024-01-24T22:08:52.917Z,0.90
2024-01-24T22:11:00.514Z,0.90
2024-01-24T22:13:11.777Z,0.77
2024-01-24T22:15:20.503Z,0.60
2024-01-24T22:17:29.045Z,0.80
2024-01-24T22:19:37.669Z,0.80
2024-01-24T22:21:46.376Z,0.90
2024-01-24T22:23:56.964Z,0.70
2024-01-24T22:26:05.650Z,1.00
2024-01-24T22:28:14.250Z,0.63
2024-01-24T22:30:22.838Z,0.60
2024-01-24T22:32:31.376Z,0.70
2024-01-24T22:34:40.074Z,0.60
2024-01-24T22:36:49.108Z,0.90
2024-01-24T22:38:59.715Z,1.00
2024-01-24T22:41:08.876Z,0.50
2024-01-24T22:43:17.750Z,0.50
2024-01-24T22:45:26.340Z,0.53
2024-01-24T22:47:35.002Z,0.40
2024-01-24T22:49:43.775Z,0.60
2024-01-24T22:51:52.925Z,0.50
2024-01-24T22:54:03.104Z,0.40
2024-01-24T22:56:11.739Z,0.40
2024-01-24T22:58:20.492Z,0.70
2024-01-24T23:00:29.190Z,0.60
2024-01-24T23:02:37.829Z,0.50
2024-01-24T23:04:46.740Z,0.50
2024-01-24T23:06:55.876Z,0.53
2024-01-24T23:09:06.174Z,0.40
2024-01-24T23:11:14.983Z,0.60
2024-01-24T23:13:23.929Z,0.30
2024-01-24T23:15:32.826Z,0.40
2024-01-24T23:17:41.864Z,0.40
2024-01-24T23:19:51.200Z,0.50
2024-01-24T23:22:00.411Z,0.40
2024-01-24T23:24:10.674Z,0.33
2024-01-24T23:26:19.202Z,0.40
2024-01-24T23:28:27.914Z,0.60
2024-01-24T23:30:36.609Z,0.63
2024-01-24T23:32:46.637Z,0.40
2024-01-24T23:34:55.779Z,0.60
2024-01-24T23:37:04.734Z,0.40
2024-01-24T23:39:14.910Z,0.40
2024-01-24T23:41:23.540Z,0.50
2024-01-24T23:43:31.078Z,0.43
2024-01-24T23:45:39.725Z,0.40
2024-01-24T23:47:48.537Z,0.50
2024-01-24T23:49:58.052Z,0.50
2024-01-24T23:52:08.826Z,0.70
2024-01-24T23:54:18.882Z,0.70
2024-01-24T23:56:28.601Z,0.60
2024-01-24T23:58:37.327Z,0.50
